Time;durP1;ratioP1;P1;durP2;ratioP2;P2;SDS_P1;SDS_P2;PMS_P1;PMS_P2;Temp;Humidity;BMP_temperature;BMP_pressure;BME280_temperature;BME280_humidity;BME280_pressure;Samples;Min_cycle;Max_cycle;Signal;HPM_P1;HPM_P2
2023/06/26 00:02:16;;;;;;;9.63;7.15;;;20.80;86.40;;;;;;5115179;28;20027;-72
2023/06/26 00:04:43;;;;;;;9.32;6.65;;;20.80;86.60;;;;;;5114794;28;20030;-72
2023/06/26 00:07:08;;;;;;;9.85;7.05;;;20.70;86.20;;;;;;5115099;28;20024;-72
2023/06/26 00:09:34;;;;;;;9.40;6.13;;;20.70;86.20;;;;;;5114652;28;20020;-72
2023/06/26 00:12:00;;;;;;;9.95;6.95;;;20.60;86.70;;;;;;5114949;28;20072;-72
2023/06/26 00:14:26;;;;;;;7.78;6.75;;;20.60;87.10;;;;;;5114622;28;20028;-72
2023/06/26 00:16:52;;;;;;;11.55;7.15;;;20.50;87.20;;;;;;5114882;28;20027;-73
2023/06/26 00:19:17;;;;;;;11.70;6.47;;;20.50;87.30;;;;;;5114735;28;20409;-73
2023/06/26 00:21:47;;;;;;;7.95;6.45;;;20.50;87.50;;;;;;5117021;27;20486;-73
2023/06/26 00:24:17;;;;;;;10.75;7.07;;;20.50;87.50;;;;;;5114841;28;20031;-73
2023/06/26 00:26:45;;;;;;;11.15;6.30;;;20.40;87.50;;;;;;5114686;28;20032;-73
2023/06/26 00:29:11;;;;;;;8.18;6.68;;;20.40;87.50;;;;;;5114728;28;20049;-73
2023/06/26 00:31:37;;;;;;;8.73;6.38;;;20.40;87.80;;;;;;5114153;28;20059;-73
2023/06/26 00:34:03;;;;;;;9.32;6.72;;;20.30;88.30;;;;;;5114508;28;20054;-72
2023/06/26 00:36:29;;;;;;;10.38;6.32;;;20.30;88.00;;;;;;5114214;28;20020;-73
2023/06/26 00:38:55;;;;;;;9.30;6.45;;;20.30;87.90;;;;;;5114426;28;20115;-72
2023/06/26 00:41:20;;;;;;;9.35;6.50;;;20.20;88.00;;;;;;5114317;28;20055;-73
2023/06/26 00:43:46;;;;;;;8.35;6.43;;;20.20;87.90;;;;;;5113995;28;20438;-73
2023/06/26 00:46:13;;;;;;;9.32;6.47;;;20.20;88.10;;;;;;5114249;28;20040;-72
2023/06/26 00:48:41;;;;;;;8.50;6.15;;;20.20;88.10;;;;;;5113993;28;20027;-73
2023/06/26 00:51:07;;;;;;;12.27;6.00;;;20.20;88.10;;;;;;5114459;28;20047;-73
2023/06/26 00:53:33;;;;;;;8.50;6.38;;;20.10;88.30;;;;;;5113838;28;20023;-72
2023/06/26 00:56:00;;;;;;;8.13;6.20;;;20.10;88.30;;;;;;5114269;28;20064;-72
2023/06/26 00:58:26;;;;;;;7.65;6.20;;;20.10;88.60;;;;;;5113777;28;20023;-73
2023/06/26 01:00:52;;;;;;;9.13;6.30;;;20.10;88.70;;;;;;5096142;28;20444;-72
2023/06/26 01:03:19;;;;;;;7.65;6.28;;;20.00;88.70;;;;;;5113974;28;20027;-73
2023/06/26 01:05:49;;;;;;;7.28;6.38;;;20.00;89.00;;;;;;5113458;28;20020;-73
2023/06/26 01:08:16;;;;;;;11.65;6.45;;;20.00;89.00;;;;;;5113976;28;20020;-73
2023/06/26 01:10:42;;;;;;;12.00;6.72;;;19.90;89.10;;;;;;5113531;28;20023;-73
2023/06/26 01:13:08;;;;;;;9.32;7.00;;;19.90;89.50;;;;;;5114863;27;20019;-73
2023/06/26 01:15:34;;;;;;;10.13;6.32;;;19.90;89.90;;;;;;5131523;27;20084;-73
2023/06/26 01:18:03;;;;;;;7.55;5.63;;;19.90;90.10;;;;;;5134344;27;20023;-73
2023/06/26 01:20:39;;;;;;;7.85;5.95;;;19.80;90.00;;;;;;5134016;27;20015;-73
2023/06/26 01:23:20;;;;;;;9.07;5.63;;;19.80;90.20;;;;;;5134280;27;20019;-73
2023/06/26 01:26:16;;;;;;;8.18;6.15;;;19.80;90.20;;;;;;5133914;27;20118;-73
2023/06/26 01:28:43;;;;;;;9.65;6.30;;;19.80;90.10;;;;;;5133547;27;20486;-73
2023/06/26 01:31:11;;;;;;;8.15;6.18;;;19.70;90.20;;;;;;5133723;27;20501;-73
2023/06/26 01:33:37;;;;;;;6.45;5.75;;;19.70;90.20;;;;;;5133696;27;20072;-73
2023/06/26 01:36:03;;;;;;;7.78;6.13;;;19.70;90.30;;;;;;5133997;27;20019;-72
2023/06/26 01:38:28;;;;;;;7.97;6.07;;;19.70;90.30;;;;;;5133700;27;20057;-73
2023/06/26 01:40:54;;;;;;;9.63;6.28;;;19.70;90.30;;;;;;5134314;27;20443;-73
2023/06/26 01:43:38;;;;;;;6.40;5.18;;;19.70;90.30;;;;;;5133970;27;20095;-73
2023/06/26 01:46:14;;;;;;;7.63;5.97;;;19.70;90.30;;;;;;5133855;27;20039;-74
2023/06/26 01:48:52;;;;;;;6.55;5.88;;;19.70;90.40;;;;;;5133621;27;20023;-73
2023/06/26 01:51:23;;;;;;;12.25;6.25;;;19.60;90.40;;;;;;5133977;27;20027;-73
2023/06/26 01:53:55;;;;;;;6.57;5.57;;;19.60;90.30;;;;;;5133295;27;20022;-73
2023/06/26 01:56:23;;;;;;;8.82;6.32;;;19.60;90.40;;;;;;5133962;28;20247;-72
2023/06/26 01:58:49;;;;;;;10.93;6.15;;;19.60;90.50;;;;;;5133450;28;20019;-73
2023/06/26 02:01:16;;;;;;;11.40;6.07;;;19.60;90.60;;;;;;5133705;28;20019;-73
2023/06/26 02:03:41;;;;;;;7.10;6.10;;;19.60;90.60;;;;;;5133344;28;20363;-73
2023/06/26 02:06:07;;;;;;;8.00;6.32;;;19.60;90.60;;;;;;5133828;28;20067;-73
2023/06/26 02:08:33;;;;;;;9.25;6.30;;;19.50;90.60;;;;;;5133187;28;20456;-73
2023/06/26 02:10:58;;;;;;;7.53;6.18;;;19.50;90.60;;;;;;5134282;28;20440;-73
2023/06/26 02:13:24;;;;;;;10.43;6.30;;;19.50;90.70;;;;;;5133442;28;20023;-72
2023/06/26 02:15:49;;;;;;;7.38;5.78;;;19.50;90.80;;;;;;5129538;28;20069;-73
2023/06/26 02:18:15;;;;;;;8.38;6.15;;;19.40;91.10;;;;;;5133731;28;20016;-73
2023/06/26 02:20:41;;;;;;;8.27;6.03;;;19.50;91.00;;;;;;5132959;28;20520;-72
2023/06/26 02:23:06;;;;;;;10.90;6.45;;;19.40;91.00;;;;;;5133469;28;20106;-72
2023/06/26 02:25:32;;;;;;;8.30;5.97;;;19.40;91.20;;;;;;5132926;28;20367;-73
2023/06/26 02:27:57;;;;;;;10.10;5.88;;;19.40;91.20;;;;;;5133547;28;20019;-72
2023/06/26 02:30:23;;;;;;;9.98;5.45;;;19.30;91.30;;;;;;5133606;28;20415;-73
2023/06/26 02:32:48;;;;;;;9.50;6.47;;;19.30;91.20;;;;;;5133134;28;20443;-73
2023/06/26 02:35:14;;;;;;;10.88;6.03;;;19.30;91.50;;;;;;5133460;28;20019;-73
2023/06/26 02:37:40;;;;;;;10.52;6.30;;;19.20;91.50;;;;;;5132816;28;20412;-73
2023/06/26 02:40:07;;;;;;;11.32;5.88;;;19.20;91.50;;;;;;5133484;28;20017;-73
2023/06/26 02:42:34;;;;;;;7.65;6.10;;;19.20;91.50;;;;;;5132962;27;20056;-74
2023/06/26 02:45:00;;;;;;;13.13;6.20;;;19.20;91.60;;;;;;5137244;27;20059;-73
2023/06/26 02:47:25;;;;;;;11.15;6.28;;;19.20;91.70;;;;;;5137433;27;20103;-73
2023/06/26 02:49:51;;;;;;;9.25;6.50;;;19.20;91.80;;;;;;5136829;27;20023;-72
2023/06/26 02:52:17;;;;;;;7.07;6.10;;;19.20;92.00;;;;;;5137256;27;20451;-72
2023/06/26 02:54:42;;;;;;;8.02;6.00;;;19.20;91.90;;;;;;5136500;27;20027;-72
2023/06/26 02:57:08;;;;;;;10.57;6.13;;;19.10;92.00;;;;;;5137190;27;20025;-72
2023/06/26 02:59:34;;;;;;;9.85;6.05;;;19.10;92.20;;;;;;5118242;27;20106;-74
2023/06/26 03:01:59;;;;;;;11.57;5.45;;;19.10;92.40;;;;;;5136982;27;20055;-73
2023/06/26 03:04:25;;;;;;;6.35;5.63;;;19.10;92.20;;;;;;5136627;27;20066;-72
2023/06/26 03:06:51;;;;;;;8.05;6.07;;;19.00;92.50;;;;;;5136442;27;20019;-73
2023/06/26 03:09:17;;;;;;;9.20;6.03;;;19.10;92.30;;;;;;5136669;27;20050;-73
2023/06/26 03:11:43;;;;;;;7.72;6.20;;;19.10;92.30;;;;;;5136309;27;20396;-72
2023/06/26 03:14:08;;;;;;;7.28;6.03;;;19.10;92.40;;;;;;5137017;27;20016;-73
2023/06/26 03:16:34;;;;;;;8.35;5.57;;;19.00;92.40;;;;;;5136084;27;20046;-73
2023/06/26 03:19:00;;;;;;;7.40;6.30;;;18.90;92.70;;;;;;5122822;27;20117;-73
2023/06/26 03:21:25;;;;;;;11.27;6.90;;;18.90;92.70;;;;;;5129373;27;20043;-72
2023/06/26 03:23:51;;;;;;;10.02;6.45;;;18.90;92.90;;;;;;5135781;27;20085;-73
2023/06/26 03:26:16;;;;;;;8.77;6.07;;;18.90;92.90;;;;;;5136516;27;20092;-73
2023/06/26 03:28:42;;;;;;;8.32;6.28;;;18.90;92.90;;;;;;5135776;27;20030;-73
2023/06/26 03:31:08;;;;;;;8.30;5.93;;;18.90;93.20;;;;;;5136202;27;20026;-73
2023/06/26 03:33:33;;;;;;;14.38;6.35;;;18.80;93.10;;;;;;5136308;27;20027;-72
2023/06/26 03:35:59;;;;;;;8.95;6.60;;;18.80;93.30;;;;;;5136121;27;20051;-72
2023/06/26 03:38:25;;;;;;;7.43;6.60;;;18.80;93.30;;;;;;5136252;27;20359;-73
2023/06/26 03:40:52;;;;;;;8.20;6.35;;;18.80;93.20;;;;;;5135779;27;20027;-73
2023/06/26 03:43:17;;;;;;;10.45;6.70;;;18.80;93.50;;;;;;5136098;27;20027;-73
2023/06/26 03:45:43;;;;;;;8.35;6.70;;;18.80;93.60;;;;;;5135574;27;20049;-73
2023/06/26 03:48:08;;;;;;;12.52;6.20;;;18.80;93.50;;;;;;5135991;27;20042;-73
2023/06/26 03:50:34;;;;;;;9.63;6.50;;;18.80;93.60;;;;;;5135656;27;20023;-73
2023/06/26 03:53:00;;;;;;;8.60;6.70;;;18.80;93.50;;;;;;5134991;27;20033;-73
2023/06/26 03:55:25;;;;;;;12.60;6.90;;;18.80;93.60;;;;;;5135061;27;20029;-72
2023/06/26 03:57:51;;;;;;;10.05;6.50;;;18.80;93.60;;;;;;5135244;27;20020;-73
2023/06/26 04:00:17;;;;;;;9.07;6.40;;;18.90;93.50;;;;;;5135458;27;20026;-72
2023/06/26 04:02:43;;;;;;;7.97;6.50;;;18.90;93.60;;;;;;5135340;27;20067;-73
2023/06/26 04:05:08;;;;;;;7.82;6.55;;;19.00;93.50;;;;;;5135742;27;20026;-73
2023/06/26 04:07:35;;;;;;;10.35;7.00;;;19.00;93.30;;;;;;5132122;27;20475;-73
2023/06/26 04:10:01;;;;;;;10.15;6.82;;;19.10;93.40;;;;;;5135308;27;20035;-73
2023/06/26 04:12:27;;;;;;;9.63;6.68;;;19.20;93.20;;;;;;5135749;27;20448;-73
2023/06/26 04:14:52;;;;;;;11.10;6.85;;;19.20;92.80;;;;;;5135258;27;20467;-73
2023/06/26 04:17:18;;;;;;;11.52;6.90;;;19.30;92.90;;;;;;5135431;27;20444;-72
2023/06/26 04:19:44;;;;;;;9.02;5.90;;;19.40;92.50;;;;;;5135174;27;20023;-73
2023/06/26 04:22:09;;;;;;;7.65;6.10;;;19.50;92.40;;;;;;5135089;27;20030;-72
2023/06/26 04:24:35;;;;;;;7.82;6.90;;;19.60;92.00;;;;;;5135321;27;20098;-73
2023/06/26 04:27:00;;;;;;;9.75;6.68;;;19.70;91.90;;;;;;5134947;27;20023;-72
2023/06/26 04:29:27;;;;;;;8.60;7.07;;;19.70;91.50;;;;;;5134951;27;20118;-72
2023/06/26 04:31:57;;;;;;;8.48;6.50;;;19.80;91.70;;;;;;5134874;27;20076;-72
2023/06/26 04:34:25;;;;;;;8.10;6.32;;;20.00;91.10;;;;;;5135532;27;20019;-72
2023/06/26 04:36:51;;;;;;;10.77;6.38;;;20.10;91.10;;;;;;5134572;27;20514;-72
2023/06/26 04:39:17;;;;;;;8.80;7.35;;;20.30;90.80;;;;;;5135263;27;20016;-72
2023/06/26 04:41:44;;;;;;;9.07;6.78;;;20.40;90.40;;;;;;5134639;27;20470;-73
2023/06/26 04:44:09;;;;;;;9.52;6.05;;;20.60;90.20;;;;;;5134741;27;20031;-72
2023/06/26 04:46:36;;;;;;;8.63;6.80;;;20.80;89.50;;;;;;5134399;27;20116;-72
2023/06/26 04:49:03;;;;;;;10.38;6.68;;;21.10;88.20;;;;;;5134399;27;20440;-72
2023/06/26 04:51:29;;;;;;;13.43;7.30;;;21.30;86.10;;;;;;5134819;27;20060;-72
2023/06/26 04:53:54;;;;;;;10.73;7.28;;;21.50;84.70;;;;;;5134147;27;20015;-72
2023/06/26 04:56:20;;;;;;;11.82;6.95;;;21.80;84.00;;;;;;5134737;27;20030;-73
2023/06/26 04:58:46;;;;;;;12.98;7.25;;;22.00;83.30;;;;;;5134093;27;20019;-72
2023/06/26 05:01:13;;;;;;;11.32;7.20;;;22.40;81.60;;;;;;5134119;27;20019;-72
2023/06/26 05:03:39;;;;;;;13.32;7.00;;;23.00;79.00;;;;;;5134203;27;20076;-73
2023/06/26 05:06:04;;;;;;;12.07;7.25;;;23.50;77.10;;;;;;5133332;27;20467;-72
2023/06/26 05:08:30;;;;;;;9.70;6.97;;;24.30;74.20;;;;;;5134278;27;20111;-73
2023/06/26 05:10:58;;;;;;;10.07;7.07;;;24.60;70.90;;;;;;5133893;27;20375;-73
2023/06/26 05:13:25;;;;;;;8.10;6.88;;;25.00;69.50;;;;;;5134085;27;20019;-73
2023/06/26 05:15:52;;;;;;;8.95;6.30;;;25.60;68.30;;;;;;5133778;27;20103;-73
2023/06/26 05:18:18;;;;;;;14.48;7.30;;;26.00;66.10;;;;;;5133756;27;20027;-73
2023/06/26 05:20:44;;;;;;;11.60;6.50;;;26.50;65.20;;;;;;5115142;27;20022;-74
2023/06/26 05:23:13;;;;;;;8.60;6.90;;;26.90;62.30;;;;;;5133838;27;20076;-73
2023/06/26 05:25:39;;;;;;;7.82;6.75;;;27.10;62.10;;;;;;5133932;27;20060;-73
2023/06/26 05:28:06;;;;;;;6.90;6.15;;;27.40;60.30;;;;;;5133464;27;20068;-73
2023/06/26 05:30:34;;;;;;;9.52;6.93;;;27.70;59.60;;;;;;5133863;27;20019;-73
2023/06/26 05:33:01;;;;;;;10.88;6.63;;;28.00;58.40;;;;;;5133519;27;20072;-73
2023/06/26 05:35:32;;;;;;;8.60;6.82;;;28.10;57.60;;;;;;5115729;27;20030;-73
2023/06/26 05:37:58;;;;;;;9.18;6.75;;;28.10;57.60;;;;;;5133569;27;20019;-73
2023/06/26 05:40:25;;;;;;;9.10;6.50;;;28.20;57.10;;;;;;5133778;27;20030;-73
2023/06/26 05:42:50;;;;;;;8.18;6.78;;;28.40;56.50;;;;;;5133249;27;20027;-73
2023/06/26 05:45:16;;;;;;;8.52;5.97;;;28.50;56.60;;;;;;5134126;27;20019;-73
2023/06/26 05:47:42;;;;;;;7.75;6.05;;;28.60;55.90;;;;;;5133960;27;20073;-73
2023/06/26 05:50:09;;;;;;;9.13;6.57;;;28.80;55.80;;;;;;5133395;27;20026;-74
2023/06/26 05:52:36;;;;;;;8.07;6.30;;;28.80;54.40;;;;;;5133789;27;20147;-73
2023/06/26 05:55:05;;;;;;;12.10;6.30;;;29.00;55.20;;;;;;5133300;27;20023;-73
2023/06/26 05:57:31;;;;;;;14.30;6.03;;;29.40;53.90;;;;;;5133530;28;20019;-72
2023/06/26 05:59:57;;;;;;;10.60;6.40;;;29.70;53.90;;;;;;5131166;28;20044;-73
2023/06/26 06:02:23;;;;;;;8.15;5.75;;;30.10;52.70;;;;;;5131828;28;20110;-72
2023/06/26 06:04:49;;;;;;;8.57;6.40;;;30.50;52.10;;;;;;5133191;28;20023;-75
2023/06/26 06:07:14;;;;;;;6.60;4.85;;;30.70;50.90;;;;;;5134017;28;20023;-74
2023/06/26 06:09:40;;;;;;;7.65;5.97;;;31.20;49.80;;;;;;5133688;28;20042;-73
2023/06/26 06:12:07;;;;;;;9.38;6.07;;;31.90;49.70;;;;;;5132979;28;20035;-73
2023/06/26 06:14:34;;;;;;;8.50;5.93;;;32.50;48.00;;;;;;5133600;28;20508;-72
2023/06/26 06:17:00;;;;;;;6.65;4.18;;;32.90;47.50;;;;;;5133986;27;20060;-73
2023/06/26 06:19:25;;;;;;;5.95;4.20;;;33.20;44.60;;;;;;5137628;27;20051;-73
2023/06/26 06:21:51;;;;;;;3.72;3.05;;;33.60;43.50;;;;;;5137298;27;20066;-73
2023/06/26 06:24:16;;;;;;;6.20;3.22;;;34.30;41.90;;;;;;5137420;27;20019;-73
2023/06/26 06:26:42;;;;;;;4.63;3.28;;;34.90;40.60;;;;;;5119088;27;20026;-73
2023/06/26 06:29:08;;;;;;;4.20;2.70;;;35.50;40.00;;;;;;5136962;27;20455;-73
2023/06/26 06:31:33;;;;;;;4.82;3.40;;;36.20;38.50;;;;;;5137585;27;20426;-72
2023/06/26 06:33:59;;;;;;;6.22;2.90;;;36.70;38.00;;;;;;5136853;27;20024;-73
2023/06/26 06:36:25;;;;;;;4.15;3.30;;;37.10;36.30;;;;;;5137369;27;20025;-73
2023/06/26 06:38:50;;;;;;;3.72;2.90;;;37.50;35.80;;;;;;5136880;27;20046;-74
2023/06/26 06:41:16;;;;;;;4.55;3.40;;;37.60;34.70;;;;;;5136940;27;20011;-74
2023/06/26 06:43:42;;;;;;;15.70;3.35;;;37.80;34.20;;;;;;5137307;27;20031;-73
2023/06/26 06:46:08;;;;;;;6.43;3.05;;;37.80;34.40;;;;;;5136878;27;20357;-73
2023/06/26 06:48:34;;;;;;;5.80;3.10;;;38.20;34.10;;;;;;5137264;27;20027;-74
2023/06/26 06:51:00;;;;;;;4.80;3.03;;;38.40;34.20;;;;;;5137109;27;20106;-74
2023/06/26 06:53:26;;;;;;;5.10;3.10;;;38.70;33.60;;;;;;5137135;27;20059;-73
2023/06/26 06:55:52;;;;;;;5.80;3.30;;;38.60;33.20;;;;;;5136641;27;20117;-74
2023/06/26 06:58:22;;;;;;;4.20;3.40;;;38.60;32.60;;;;;;5136904;27;20044;-73
2023/06/26 07:00:48;;;;;;;4.88;3.00;;;38.90;32.50;;;;;;5136880;27;20027;-73
2023/06/26 07:03:14;;;;;;;3.40;3.10;;;38.50;31.70;;;;;;5136481;27;20034;-73
2023/06/26 07:05:42;;;;;;;4.07;3.47;;;38.30;32.70;;;;;;5118493;27;20027;-73
2023/06/26 07:08:08;;;;;;;3.70;3.20;;;38.40;32.50;;;;;;5118017;27;20152;-73
2023/06/26 07:10:34;;;;;;;3.13;2.90;;;38.00;33.20;;;;;;5136868;27;20023;-73
2023/06/26 07:12:59;;;;;;;5.03;3.22;;;38.50;32.90;;;;;;5117893;27;20027;-73
2023/06/26 07:15:25;;;;;;;4.20;3.40;;;38.50;33.10;;;;;;5134570;27;20092;-73
2023/06/26 07:17:51;;;;;;;4.90;4.07;;;38.50;32.50;;;;;;5099087;28;20065;-78
2023/06/26 07:20:16;;;;;;;4.03;3.60;;;38.40;32.50;;;;;;5116853;27;20027;-73
2023/06/26 07:22:44;;;;;;;4.10;3.22;;;38.80;33.50;;;;;;5115686;28;20133;-72
2023/06/26 07:25:10;;;;;;;4.75;3.17;;;38.50;32.50;;;;;;5115136;28;20028;-73
2023/06/26 07:27:40;;;;;;;3.42;3.10;;;38.80;32.50;;;;;;5115233;28;20023;-73
2023/06/26 07:30:10;;;;;;;3.35;3.05;;;38.90;31.50;;;;;;5114371;28;20038;-73
2023/06/26 07:32:37;;;;;;;5.93;3.13;;;39.00;30.40;;;;;;5116140;28;20047;-72
2023/06/26 07:35:03;;;;;;;3.60;3.30;;;38.50;31.30;;;;;;5114995;28;20027;-72
2023/06/26 07:37:28;;;;;;;3.20;2.88;;;38.50;30.70;;;;;;5115779;28;20020;-73
2023/06/26 07:39:54;;;;;;;4.85;3.03;;;38.10;31.70;;;;;;5115321;28;20459;-73
2023/06/26 07:42:20;;;;;;;4.30;3.83;;;37.50;32.70;;;;;;5115587;28;20042;-73
2023/06/26 07:44:45;;;;;;;7.05;3.38;;;38.00;32.40;;;;;;5115252;28;20019;-73
2023/06/26 07:47:11;;;;;;;3.63;2.92;;;38.40;31.60;;;;;;5115072;28;20046;-72
2023/06/26 07:49:38;;;;;;;4.47;3.45;;;38.20;31.70;;;;;;5115116;28;20028;-73
2023/06/26 07:52:04;;;;;;;4.05;3.45;;;38.40;31.90;;;;;;5117641;27;20432;-73
2023/06/26 07:54:30;;;;;;;6.95;3.17;;;38.60;31.80;;;;;;5115060;28;20059;-73
2023/06/26 07:56:57;;;;;;;4.45;3.45;;;38.80;32.10;;;;;;5114933;28;20019;-73
2023/06/26 07:59:25;;;;;;;4.07;3.22;;;38.50;32.60;;;;;;5115155;28;20148;-73
2023/06/26 08:01:52;;;;;;;5.30;3.38;;;38.50;31.70;;;;;;5115091;28;20020;-73
2023/06/26 08:04:22;;;;;;;5.07;3.15;;;38.50;32.40;;;;;;5114745;28;20024;-73
2023/06/26 08:06:49;;;;;;;7.03;3.75;;;37.90;32.30;;;;;;5115092;28;20026;-74
2023/06/26 08:09:16;;;;;;;3.80;3.40;;;37.70;32.00;;;;;;5114495;28;20035;-73
2023/06/26 08:11:41;;;;;;;5.00;3.30;;;37.20;32.20;;;;;;5096808;28;20464;-74
2023/06/26 08:14:07;;;;;;;3.35;2.95;;;37.40;33.20;;;;;;5115225;28;20023;-73
2023/06/26 08:16:33;;;;;;;3.88;3.20;;;37.50;32.20;;;;;;5114821;28;20486;-72
2023/06/26 08:18:58;;;;;;;5.53;3.35;;;37.30;32.00;;;;;;5114440;28;20435;-72
2023/06/26 08:21:24;;;;;;;4.82;3.55;;;37.00;32.70;;;;;;5114587;28;20121;-72
2023/06/26 08:23:49;;;;;;;5.80;3.75;;;36.90;32.20;;;;;;5114375;28;20393;-73
2023/06/26 08:26:15;;;;;;;4.93;3.35;;;36.70;32.90;;;;;;5114085;28;20073;-73
2023/06/26 08:28:41;;;;;;;5.78;3.22;;;36.50;33.20;;;;;;5096016;28;20020;-73
2023/06/26 08:31:06;;;;;;;4.40;3.53;;;36.10;33.20;;;;;;5114301;28;20072;-73
2023/06/26 08:33:32;;;;;;;7.40;3.28;;;35.90;34.20;;;;;;5114623;28;20023;-72
2023/06/26 08:35:58;;;;;;;6.28;3.20;;;35.50;33.50;;;;;;5095938;28;20249;-71
2023/06/26 08:38:23;;;;;;;3.60;3.00;;;35.10;34.90;;;;;;5114302;28;20509;-72
2023/06/26 08:40:49;;;;;;;4.88;3.28;;;35.20;35.30;;;;;;5113005;28;20046;-72
2023/06/26 08:43:14;;;;;;;4.25;3.55;;;34.80;35.70;;;;;;5095651;28;20072;-72
2023/06/26 08:45:40;;;;;;;5.25;3.50;;;34.50;35.50;;;;;;5114199;28;20075;-72
2023/06/26 08:48:09;;;;;;;5.57;3.58;;;34.10;36.10;;;;;;5113937;28;20079;-72
2023/06/26 08:50:38;;;;;;;7.15;3.15;;;33.80;36.80;;;;;;5114119;28;20444;-72
2023/06/26 08:53:13;;;;;;;5.65;4.07;;;33.70;37.00;;;;;;5113745;28;20043;-73
2023/06/26 08:55:40;;;;;;;5.53;3.53;;;33.30;37.40;;;;;;5113908;28;20023;-72
2023/06/26 08:58:06;;;;;;;5.45;3.80;;;33.10;38.40;;;;;;5113664;28;20023;-73
2023/06/26 09:00:32;;;;;;;7.05;4.03;;;32.90;38.30;;;;;;5114012;28;20444;-73
2023/06/26 09:02:59;;;;;;;5.97;3.40;;;32.60;38.60;;;;;;5113674;28;20076;-81
2023/06/26 09:05:27;;;;;;;5.13;3.90;;;32.50;39.00;;;;;;5113913;28;20019;-72
2023/06/26 09:07:55;;;;;;;4.43;3.75;;;32.30;39.00;;;;;;5113922;28;20027;-72
2023/06/26 09:10:21;;;;;;;6.97;3.88;;;32.00;39.30;;;;;;5113129;28;20460;-72
2023/06/26 09:12:50;;;;;;;4.40;3.60;;;31.80;39.60;;;;;;5113546;28;20294;-73
2023/06/26 09:15:19;;;;;;;6.78;4.30;;;31.50;40.30;;;;;;5113897;27;20107;-73
2023/06/26 09:17:46;;;;;;;4.75;3.90;;;31.20;40.80;;;;;;5134158;27;20455;-72
2023/06/26 09:20:14;;;;;;;5.07;3.90;;;31.10;41.30;;;;;;5133862;27;20026;-72
2023/06/26 09:22:46;;;;;;;5.00;4.00;;;30.80;41.40;;;;;;5120485;27;20166;-72
2023/06/26 09:25:12;;;;;;;6.10;4.03;;;30.80;42.60;;;;;;5113546;28;20039;-72
2023/06/26 09:27:38;;;;;;;4.22;3.70;;;30.70;41.80;;;;;;5113809;28;20444;-73
2023/06/26 09:30:06;;;;;;;5.22;4.13;;;30.70;42.70;;;;;;5113278;28;20341;-72
2023/06/26 09:32:37;;;;;;;5.63;4.47;;;30.70;42.40;;;;;;5113405;28;20092;-72
2023/06/26 09:35:03;;;;;;;;;;;30.60;42.50;;;;;;5113316;28;20378;-72
2023/06/26 09:37:29;;;;;;;5.22;4.03;;;30.40;42.90;;;;;;5113609;28;19904;-72
2023/06/26 09:39:55;;;;;;;6.03;4.03;;;30.40;44.10;;;;;;5095155;28;20033;-72
2023/06/26 09:42:21;;;;;;;5.18;3.95;;;30.40;43.30;;;;;;5112639;28;20031;-73
2023/06/26 09:44:47;;;;;;;10.02;4.05;;;30.20;43.10;;;;;;5097666;28;20501;-73
2023/06/26 09:47:17;;;;;;;8.50;4.53;;;30.20;45.30;;;;;;5113037;28;20043;-73
2023/06/26 09:49:43;;;;;;;4.55;3.45;;;30.10;46.60;;;;;;5113295;28;20020;-72
2023/06/26 09:52:09;;;;;;;4.40;4.00;;;30.00;44.40;;;;;;5112795;28;20108;-73
2023/06/26 09:54:36;;;;;;;3.83;3.50;;;30.00;45.60;;;;;;5113456;28;20401;-72
2023/06/26 09:57:13;;;;;;;5.40;4.00;;;30.00;45.60;;;;;;5114259;28;20020;-79
2023/06/26 09:59:39;;;;;;;6.68;4.10;;;30.20;44.70;;;;;;5114708;28;20024;-72
2023/06/26 10:02:05;;;;;;;9.43;6.50;;;29.90;43.90;;;;;;5112632;28;20084;-74
2023/06/26 10:04:32;;;;;;;4.32;3.92;;;30.00;45.80;;;;;;5112870;28;20034;-72
2023/06/26 10:07:03;;;;;;;6.70;4.20;;;30.00;45.40;;;;;;5112905;28;20024;-74
2023/06/26 10:09:30;;;;;;;6.90;3.97;;;30.10;45.10;;;;;;5113353;28;20019;-72
2023/06/26 10:12:06;;;;;;;6.03;3.92;;;30.00;44.20;;;;;;5112830;28;20034;-73
2023/06/26 10:14:34;;;;;;;6.53;3.97;;;30.10;45.50;;;;;;5112695;28;20016;-74
2023/06/26 10:17:03;;;;;;;5.50;4.18;;;30.00;43.80;;;;;;5112604;28;20035;-71
2023/06/26 10:19:31;;;;;;;5.03;3.50;;;29.90;44.50;;;;;;5112838;28;20059;-72
2023/06/26 10:21:59;;;;;;;4.38;3.63;;;30.00;46.30;;;;;;5112851;28;20027;-72
2023/06/26 10:24:28;;;;;;;4.30;3.45;;;30.00;45.30;;;;;;5093808;28;20069;-72
2023/06/26 10:27:00;;;;;;;4.22;3.83;;;29.80;43.90;;;;;;5112582;28;20105;-72
2023/06/26 10:29:27;;;;;;;3.80;3.40;;;29.80;46.00;;;;;;5112482;28;20030;-72
2023/06/26 10:31:56;;;;;;;5.65;3.63;;;29.80;46.10;;;;;;5112322;28;20495;-72
2023/06/26 10:34:22;;;;;;;4.38;3.55;;;29.60;46.10;;;;;;5112066;28;20096;-72
2023/06/26 10:36:59;;;;;;;3.63;3.08;;;29.70;45.60;;;;;;5113032;28;20188;-73
2023/06/26 10:39:25;;;;;;;3.63;3.28;;;29.40;43.30;;;;;;5112245;28;20647;-73
2023/06/26 10:41:55;;;;;;;3.75;3.33;;;29.20;44.50;;;;;;5112568;28;20423;-73
2023/06/26 10:44:21;;;;;;;3.67;3.38;;;29.20;45.90;;;;;;5112154;28;20027;-73
2023/06/26 10:46:52;;;;;;;5.93;3.42;;;29.20;44.30;;;;;;5112102;28;20427;-73
2023/06/26 10:49:28;;;;;;;3.78;3.28;;;29.10;43.60;;;;;;5112150;28;20027;-72
2023/06/26 10:51:56;;;;;;;4.05;3.55;;;29.10;44.30;;;;;;5112577;28;20027;-73
2023/06/26 10:54:22;;;;;;;4.38;3.88;;;29.00;43.70;;;;;;5112180;28;20027;-72
2023/06/26 10:56:50;;;;;;;3.85;3.45;;;29.00;45.40;;;;;;5112679;28;20030;-72
2023/06/26 10:59:26;;;;;;;6.55;3.38;;;29.10;46.20;;;;;;5112143;28;20028;-73
2023/06/26 11:01:59;;;;;;;3.95;3.65;;;29.20;46.90;;;;;;5112179;28;20023;-72
2023/06/26 11:04:47;;;;;;;4.30;3.78;;;29.30;47.40;;;;;;5113344;28;20016;-72
2023/06/26 11:07:19;;;;;;;4.30;3.10;;;29.40;47.30;;;;;;5115875;28;20024;-72
2023/06/26 11:10:02;;;;;;;3.78;3.25;;;29.20;45.00;;;;;;5116080;28;20072;-71
2023/06/26 11:12:42;;;;;;;5.20;3.65;;;29.40;44.60;;;;;;5115695;28;20032;-73
2023/06/26 11:15:18;;;;;;;4.65;3.28;;;29.50;44.60;;;;;;5116074;28;20074;-72
2023/06/26 11:17:46;;;;;;;4.70;3.28;;;29.50;44.50;;;;;;5116002;28;20011;-72
2023/06/26 11:20:13;;;;;;;5.15;3.47;;;29.60;45.20;;;;;;5118094;27;20102;-73
2023/06/26 11:22:40;;;;;;;6.38;3.28;;;29.60;44.30;;;;;;5115591;28;20038;-73
2023/06/26 11:25:08;;;;;;;3.85;3.40;;;29.70;44.90;;;;;;5115952;28;20024;-72
2023/06/26 11:27:40;;;;;;;3.67;3.20;;;29.70;44.60;;;;;;5116133;28;20358;-72
2023/06/26 11:30:07;;;;;;;7.55;3.28;;;29.70;43.90;;;;;;5115858;28;20106;-73
2023/06/26 11:32:33;;;;;;;4.45;3.97;;;29.70;44.00;;;;;;5096940;28;20034;-72
2023/06/26 11:34:59;;;;;;;4.07;3.13;;;29.80;46.00;;;;;;5115793;28;20364;-72
2023/06/26 11:37:25;;;;;;;3.97;3.33;;;29.70;43.90;;;;;;5115404;28;20077;-73
2023/06/26 11:39:51;;;;;;;7.72;3.72;;;29.60;45.50;;;;;;5115817;28;20015;-72
2023/06/26 11:42:17;;;;;;;3.60;3.30;;;29.70;46.60;;;;;;5114939;28;20509;-72
2023/06/26 11:44:44;;;;;;;5.13;3.78;;;29.70;45.10;;;;;;5115530;28;20020;-72
2023/06/26 11:47:20;;;;;;;4.75;3.72;;;29.70;44.10;;;;;;5115247;28;20100;-78
2023/06/26 11:49:48;;;;;;;4.00;3.60;;;29.70;44.40;;;;;;5115442;28;20019;-72
2023/06/26 11:52:15;;;;;;;4.35;3.53;;;29.70;44.40;;;;;;5114826;28;20099;-73
2023/06/26 11:54:42;;;;;;;4.10;3.47;;;29.80;44.50;;;;;;5117803;27;20024;-72
2023/06/26 11:57:07;;;;;;;5.68;3.50;;;29.90;45.40;;;;;;5114917;28;20361;-73
2023/06/26 11:59:38;;;;;;;4.82;3.45;;;29.90;44.70;;;;;;5115225;28;20020;-73
2023/06/26 12:02:12;;;;;;;3.63;3.33;;;29.80;44.60;;;;;;5115258;28;20371;-73
2023/06/26 12:04:42;;;;;;;5.15;3.53;;;29.80;44.10;;;;;;5115225;28;20042;-72
2023/06/26 12:07:10;;;;;;;5.85;3.90;;;29.80;43.90;;;;;;5115362;28;20102;-71
2023/06/26 12:09:46;;;;;;;6.18;3.30;;;29.80;44.70;;;;;;5114773;28;20129;-73
2023/06/26 12:12:16;;;;;;;3.85;3.20;;;29.70;44.00;;;;;;5114867;28;20031;-78
2023/06/26 12:14:42;;;;;;;5.35;3.65;;;29.60;44.50;;;;;;5114922;28;20030;-73
2023/06/26 12:17:12;;;;;;;4.10;3.35;;;29.60;44.70;;;;;;5115141;28;20019;-73
2023/06/26 12:19:45;;;;;;;3.60;3.28;;;29.70;45.60;;;;;;5114739;28;20031;-71
2023/06/26 12:22:11;;;;;;;6.10;3.35;;;29.70;45.40;;;;;;5114683;28;20391;-73
2023/06/26 12:24:42;;;;;;;4.05;3.50;;;29.70;45.00;;;;;;5114365;28;20095;-73
2023/06/26 12:27:10;;;;;;;4.32;3.60;;;29.70;45.10;;;;;;5114914;28;20111;-73
2023/06/26 12:29:37;;;;;;;3.80;3.15;;;29.60;45.10;;;;;;5114333;28;20055;-73
2023/06/26 12:32:03;;;;;;;4.10;3.17;;;29.60;44.80;;;;;;5114600;28;20054;-73
2023/06/26 12:34:31;;;;;;;5.53;3.83;;;29.60;44.50;;;;;;5114283;28;20055;-73
2023/06/26 12:37:02;;;;;;;3.50;3.20;;;29.50;44.30;;;;;;5114320;28;20027;-74
2023/06/26 12:39:27;;;;;;;7.35;3.28;;;29.40;44.50;;;;;;5114171;28;20019;-73
2023/06/26 12:41:57;;;;;;;3.90;3.33;;;29.40;45.00;;;;;;5114391;28;20034;-72
2023/06/26 12:44:28;;;;;;;3.92;3.30;;;29.40;45.00;;;;;;5114140;28;20080;-73
2023/06/26 12:46:59;;;;;;;3.45;3.15;;;29.50;45.20;;;;;;5113913;28;20043;-73